Topeka, KS

8:03 PM CST on December 18, 2014 (GMT -0600)
Elmhurst | Change Station
CLOSE
Current Station
Personal Weather Station
Location: Topeka, KS
Elevation: 953 ft
Nearby Weather Stations

Elev 953 ft 39.05 °N, 95.70 °W | Updated 2 minutes ago

Overcast
Overcast
32.3 °F
Feels Like 32 °F
N
1.0
Wind Variable Wind from NNW

Today
High -- | Low -- °F
--% Chance of Precip.
Yesterday
High -- | Low -- °F
Precip. -- in
7:36 AM 5:02 PM
Waning Crescent, 11% visible
Pressure 30.27 in
Visibility 10.0 miles
Clouds Overcast 1100 ft
Windchill 32 °F
Dew Point 30 °F
Humidity 91%
Rainfall 0.07 in
Snow Depth Not available.
UV 0 out of 12
Pollen .10 out of 12
Air Quality Not available.
Flu Activity Not available.
METAR KTOP 190153Z AUTO 06003KT 10SM OVC011 01/M02 A3025 RMK AO2 SLP251 T00061017

More Conditions Fewer Conditions

Pressure 30.27 in
Visibility 10.0 miles
Clouds Overcast 1100 ft
Windchill 32 °F
Dew Point 30 °F
Humidity 91%
Rainfall 0.07 in
Snow Depth Not available.
UV 0 out of 12
Pollen .10 out of 12
Air Quality Not available.
Flu Activity Not available.
METAR KTOP 190153Z AUTO 06003KT 10SM OVC011 01/M02 A3025 RMK AO2 SLP251 T00061017

More Conditions Fewer Conditions

10-Day Weather Forecast

Almanac

Astronomy

Dec. 18, 2014 Rise Set
Actual Time
Civil Twilight
Nautical Twilight
Astronomical Twilight
Moon
Length of Visible Light
Length of Day
Tomorrow will be .
, % of the Moon is Illuminated

Today's Extremes

State Highs State Lows

Community

WunderPhotos

Upload Photos

1,779,036 photos uploaded!

WunderBlogs® & News

Nearby

Air Quality

  Air Quality AQ Index Pollutant
Not available.

Snow Depth

Station Depth Elevation

Earthquake Activity

City Distance Mag. Time & Date
Minimum magnitude displayed is 2.5.

Coastal Water Temperatures

Place Temperature

Nearby Weather Stations